Terminal Aerodrome Forecast
Issued by NWS Jackson, KY

Home | Current Version | Previous Version | Text Only | Print | Product List | Glossary On
Versions: 1 2 3 4 5 6 7 8 9 10 11 12 13 14 15 16
000
FTUS43 KJKL 250533
TAFLOZ
TAF
KLOZ 250533Z 2506/2606 VRB03KT P6SM SCT040 BKN100
     FM250900 VRB03KT 3SM BR SCT040 BKN070
      TEMPO 2509/2513 1SM BR
     FM251400 VRB05KT P6SM FEW040 SCT120
     FM260500 VRB03KT P6SM SKC=

USA.gov is the U.S. government's official web portal to all federal, state and local government web resources and services.